sensor_id;sensor_type;location;lat;lon;timestamp;P1;durP1;ratioP1;P2;durP2;ratioP2
41229;SDS011;26964;50.428;19.218;2023-07-02T00:00:48;22.4;;;14.7;;
41229;SDS011;26964;50.428;19.218;2023-07-02T00:01:48;21.3;;;14.4;;
41229;SDS011;26964;50.428;19.218;2023-07-02T00:02:48;20.0;;;15.7;;
41229;SDS011;26964;50.428;19.218;2023-07-02T00:03:48;17.2;;;14.4;;
41229;SDS011;26964;50.428;19.218;2023-07-02T00:04:48;17.9;;;14.7;;
41229;SDS011;26964;50.428;19.218;2023-07-02T00:05:48;18.2;;;14.9;;
41229;SDS011;26964;50.428;19.218;2023-07-02T00:06:48;19.1;;;15.4;;
41229;SDS011;26964;50.428;19.218;2023-07-02T00:07:48;21.1;;;15.7;;
41229;SDS011;26964;50.428;19.218;2023-07-02T00:08:48;19.8;;;15.4;;
41229;SDS011;26964;50.428;19.218;2023-07-02T00:09:48;20.9;;;16.4;;
41229;SDS011;26964;50.428;19.218;2023-07-02T00:10:48;19.0;;;15.1;;
41229;SDS011;26964;50.428;19.218;2023-07-02T00:11:48;20.6;;;15.5;;
41229;SDS011;26964;50.428;19.218;2023-07-02T00:12:48;20.7;;;15.8;;
41229;SDS011;26964;50.428;19.218;2023-07-02T00:13:48;18.4;;;15.4;;
41229;SDS011;26964;50.428;19.218;2023-07-02T00:14:48;21.5;;;16.6;;
41229;SDS011;26964;50.428;19.218;2023-07-02T00:15:48;21.3;;;15.2;;
41229;SDS011;26964;50.428;19.218;2023-07-02T00:16:48;22.1;;;15.3;;
41229;SDS011;26964;50.428;19.218;2023-07-02T00:17:48;19.5;;;15.3;;
41229;SDS011;26964;50.428;19.218;2023-07-02T00:18:48;22.5;;;15.3;;
41229;SDS011;26964;50.428;19.218;2023-07-02T00:19:48;25.9;;;15.6;;
41229;SDS011;26964;50.428;19.218;2023-07-02T00:20:48;21.6;;;15.5;;
41229;SDS011;26964;50.428;19.218;2023-07-02T00:21:48;20.5;;;15.5;;
41229;SDS011;26964;50.428;19.218;2023-07-02T00:22:48;18.4;;;15.8;;
41229;SDS011;26964;50.428;19.218;2023-07-02T00:23:48;21.4;;;15.9;;
41229;SDS011;26964;50.428;19.218;2023-07-02T00:24:49;29.0;;;15.7;;
41229;SDS011;26964;50.428;19.218;2023-07-02T00:25:48;22.3;;;15.9;;
41229;SDS011;26964;50.428;19.218;2023-07-02T00:26:48;20.6;;;16.2;;
41229;SDS011;26964;50.428;19.218;2023-07-02T00:27:48;20.1;;;15.5;;
41229;SDS011;26964;50.428;19.218;2023-07-02T00:28:48;18.6;;;15.9;;
41229;SDS011;26964;50.428;19.218;2023-07-02T00:29:48;21.3;;;15.9;;
41229;SDS011;26964;50.428;19.218;2023-07-02T00:30:48;18.5;;;16.5;;
41229;SDS011;26964;50.428;19.218;2023-07-02T00:31:48;18.9;;;16.1;;
41229;SDS011;26964;50.428;19.218;2023-07-02T00:32:48;18.1;;;15.2;;
41229;SDS011;26964;50.428;19.218;2023-07-02T00:33:48;20.4;;;15.0;;
41229;SDS011;26964;50.428;19.218;2023-07-02T00:34:48;17.9;;;15.5;;
41229;SDS011;26964;50.428;19.218;2023-07-02T00:35:48;22.2;;;16.1;;
41229;SDS011;26964;50.428;19.218;2023-07-02T00:36:48;20.6;;;15.8;;
41229;SDS011;26964;50.428;19.218;2023-07-02T00:37:48;19.2;;;16.0;;
41229;SDS011;26964;50.428;19.218;2023-07-02T00:38:48;23.4;;;17.4;;
41229;SDS011;26964;50.428;19.218;2023-07-02T00:39:48;18.4;;;15.6;;
41229;SDS011;26964;50.428;19.218;2023-07-02T00:40:48;22.9;;;17.2;;
41229;SDS011;26964;50.428;19.218;2023-07-02T00:41:48;20.2;;;16.8;;
41229;SDS011;26964;50.428;19.218;2023-07-02T00:42:48;19.9;;;16.8;;
41229;SDS011;26964;50.428;19.218;2023-07-02T00:43:48;21.4;;;17.0;;
41229;SDS011;26964;50.428;19.218;2023-07-02T00:44:48;18.9;;;16.7;;
41229;SDS011;26964;50.428;19.218;2023-07-02T00:45:48;23.4;;;18.0;;
41229;SDS011;26964;50.428;19.218;2023-07-02T00:46:48;22.5;;;17.0;;
41229;SDS011;26964;50.428;19.218;2023-07-02T00:47:48;22.9;;;17.4;;
41229;SDS011;26964;50.428;19.218;2023-07-02T00:48:48;19.3;;;16.3;;
41229;SDS011;26964;50.428;19.218;2023-07-02T00:49:48;21.9;;;16.4;;
41229;SDS011;26964;50.428;19.218;2023-07-02T00:50:48;21.0;;;15.0;;
41229;SDS011;26964;50.428;19.218;2023-07-02T00:51:48;18.4;;;15.5;;
41229;SDS011;26964;50.428;19.218;2023-07-02T00:52:48;22.2;;;16.8;;
41229;SDS011;26964;50.428;19.218;2023-07-02T00:53:48;21.1;;;15.3;;
41229;SDS011;26964;50.428;19.218;2023-07-02T00:54:48;23.2;;;17.2;;
41229;SDS011;26964;50.428;19.218;2023-07-02T00:55:48;20.2;;;16.5;;
41229;SDS011;26964;50.428;19.218;2023-07-02T00:56:48;20.8;;;16.5;;
41229;SDS011;26964;50.428;19.218;2023-07-02T00:57:48;20.6;;;16.6;;
41229;SDS011;26964;50.428;19.218;2023-07-02T00:58:48;23.7;;;16.8;;
41229;SDS011;26964;50.428;19.218;2023-07-02T00:59:48;21.1;;;16.4;;
41229;SDS011;26964;50.428;19.218;2023-07-02T01:00:48;19.3;;;16.6;;
41229;SDS011;26964;50.428;19.218;2023-07-02T01:01:48;23.8;;;17.7;;
41229;SDS011;26964;50.428;19.218;2023-07-02T01:03:49;23.6;;;17.7;;
41229;SDS011;26964;50.428;19.218;2023-07-02T01:04:48;19.5;;;16.2;;
41229;SDS011;26964;50.428;19.218;2023-07-02T01:05:48;20.6;;;16.2;;
41229;SDS011;26964;50.428;19.218;2023-07-02T01:06:48;18.2;;;15.8;;
41229;SDS011;26964;50.428;19.218;2023-07-02T01:07:48;21.0;;;16.5;;
41229;SDS011;26964;50.428;19.218;2023-07-02T01:08:48;22.0;;;17.4;;
41229;SDS011;26964;50.428;19.218;2023-07-02T01:09:48;20.6;;;17.9;;
41229;SDS011;26964;50.428;19.218;2023-07-02T01:10:48;20.7;;;18.1;;
41229;SDS011;26964;50.428;19.218;2023-07-02T01:11:49;21.1;;;17.5;;
41229;SDS011;26964;50.428;19.218;2023-07-02T01:12:48;22.2;;;18.0;;
41229;SDS011;26964;50.428;19.218;2023-07-02T01:13:48;20.9;;;17.3;;
41229;SDS011;26964;50.428;19.218;2023-07-02T01:14:49;22.5;;;17.7;;
41229;SDS011;26964;50.428;19.218;2023-07-02T01:15:48;20.5;;;17.8;;
41229;SDS011;26964;50.428;19.218;2023-07-02T01:16:48;22.7;;;17.2;;
41229;SDS011;26964;50.428;19.218;2023-07-02T01:17:48;26.0;;;18.4;;
41229;SDS011;26964;50.428;19.218;2023-07-02T01:18:48;22.3;;;18.1;;
41229;SDS011;26964;50.428;19.218;2023-07-02T01:19:48;23.3;;;18.4;;
41229;SDS011;26964;50.428;19.218;2023-07-02T01:20:48;21.3;;;17.0;;
41229;SDS011;26964;50.428;19.218;2023-07-02T01:21:48;20.9;;;17.9;;
41229;SDS011;26964;50.428;19.218;2023-07-02T01:22:48;20.2;;;17.5;;
41229;SDS011;26964;50.428;19.218;2023-07-02T01:23:48;23.2;;;17.3;;
41229;SDS011;26964;50.428;19.218;2023-07-02T01:24:48;25.5;;;18.4;;
41229;SDS011;26964;50.428;19.218;2023-07-02T01:25:48;21.3;;;17.7;;
41229;SDS011;26964;50.428;19.218;2023-07-02T01:26:48;20.3;;;17.7;;
41229;SDS011;26964;50.428;19.218;2023-07-02T01:27:48;22.1;;;18.0;;
41229;SDS011;26964;50.428;19.218;2023-07-02T01:28:48;21.4;;;18.4;;
41229;SDS011;26964;50.428;19.218;2023-07-02T01:30:48;21.6;;;18.1;;
41229;SDS011;26964;50.428;19.218;2023-07-02T01:31:48;20.0;;;16.7;;
41229;SDS011;26964;50.428;19.218;2023-07-02T01:32:48;22.6;;;17.4;;
41229;SDS011;26964;50.428;19.218;2023-07-02T01:33:48;22.4;;;18.1;;
41229;SDS011;26964;50.428;19.218;2023-07-02T01:34:48;21.0;;;17.1;;
41229;SDS011;26964;50.428;19.218;2023-07-02T01:35:48;23.2;;;17.4;;
41229;SDS011;26964;50.428;19.218;2023-07-02T01:36:48;21.0;;;17.6;;
41229;SDS011;26964;50.428;19.218;2023-07-02T01:37:48;22.1;;;17.1;;
41229;SDS011;26964;50.428;19.218;2023-07-02T01:38:48;20.6;;;16.4;;
41229;SDS011;26964;50.428;19.218;2023-07-02T01:39:48;29.3;;;17.6;;
41229;SDS011;26964;50.428;19.218;2023-07-02T01:40:48;20.2;;;17.7;;
41229;SDS011;26964;50.428;19.218;2023-07-02T01:41:49;24.3;;;17.7;;
41229;SDS011;26964;50.428;19.218;2023-07-02T01:42:48;21.1;;;15.9;;
41229;SDS011;26964;50.428;19.218;2023-07-02T01:43:48;23.7;;;17.6;;
41229;SDS011;26964;50.428;19.218;2023-07-02T01:44:48;23.3;;;16.9;;
41229;SDS011;26964;50.428;19.218;2023-07-02T01:45:48;20.7;;;16.7;;
41229;SDS011;26964;50.428;19.218;2023-07-02T01:46:48;20.5;;;16.5;;
41229;SDS011;26964;50.428;19.218;2023-07-02T01:47:48;23.8;;;18.1;;
41229;SDS011;26964;50.428;19.218;2023-07-02T01:48:48;23.5;;;18.1;;
41229;SDS011;26964;50.428;19.218;2023-07-02T01:49:49;21.8;;;17.9;;
41229;SDS011;26964;50.428;19.218;2023-07-02T01:50:48;24.2;;;18.9;;
41229;SDS011;26964;50.428;19.218;2023-07-02T01:51:48;23.3;;;17.6;;
41229;SDS011;26964;50.428;19.218;2023-07-02T01:52:48;21.5;;;17.7;;
41229;SDS011;26964;50.428;19.218;2023-07-02T01:53:48;22.8;;;18.4;;
41229;SDS011;26964;50.428;19.218;2023-07-02T01:54:48;19.6;;;17.2;;
41229;SDS011;26964;50.428;19.218;2023-07-02T01:55:48;24.7;;;18.4;;
41229;SDS011;26964;50.428;19.218;2023-07-02T01:56:48;22.4;;;17.4;;
41229;SDS011;26964;50.428;19.218;2023-07-02T01:57:48;25.4;;;18.0;;
41229;SDS011;26964;50.428;19.218;2023-07-02T01:58:48;34.2;;;19.1;;
41229;SDS011;26964;50.428;19.218;2023-07-02T01:59:48;21.7;;;18.0;;
41229;SDS011;26964;50.428;19.218;2023-07-02T02:00:48;24.4;;;18.9;;
41229;SDS011;26964;50.428;19.218;2023-07-02T02:01:48;24.7;;;17.7;;
41229;SDS011;26964;50.428;19.218;2023-07-02T02:02:48;19.7;;;17.6;;
41229;SDS011;26964;50.428;19.218;2023-07-02T02:03:48;24.3;;;17.5;;
41229;SDS011;26964;50.428;19.218;2023-07-02T02:04:48;21.2;;;18.0;;
41229;SDS011;26964;50.428;19.218;2023-07-02T02:05:48;20.8;;;18.1;;
41229;SDS011;26964;50.428;19.218;2023-07-02T02:06:49;21.4;;;17.6;;
41229;SDS011;26964;50.428;19.218;2023-07-02T02:07:48;21.3;;;17.4;;
41229;SDS011;26964;50.428;19.218;2023-07-02T02:08:48;21.5;;;17.8;;
41229;SDS011;26964;50.428;19.218;2023-07-02T02:09:48;20.8;;;17.4;;
41229;SDS011;26964;50.428;19.218;2023-07-02T02:10:48;22.3;;;17.1;;
41229;SDS011;26964;50.428;19.218;2023-07-02T02:11:49;22.8;;;17.6;;
41229;SDS011;26964;50.428;19.218;2023-07-02T02:12:48;22.1;;;18.2;;
41229;SDS011;26964;50.428;19.218;2023-07-02T02:13:48;21.8;;;16.8;;
41229;SDS011;26964;50.428;19.218;2023-07-02T02:14:48;22.0;;;17.2;;
41229;SDS011;26964;50.428;19.218;2023-07-02T02:15:48;22.5;;;17.5;;
41229;SDS011;26964;50.428;19.218;2023-07-02T02:16:48;23.4;;;17.4;;
41229;SDS011;26964;50.428;19.218;2023-07-02T02:17:51;20.5;;;16.6;;
41229;SDS011;26964;50.428;19.218;2023-07-02T02:18:48;20.6;;;16.9;;
41229;SDS011;26964;50.428;19.218;2023-07-02T02:19:48;22.4;;;17.0;;
41229;SDS011;26964;50.428;19.218;2023-07-02T02:20:48;19.9;;;16.9;;
41229;SDS011;26964;50.428;19.218;2023-07-02T02:21:48;20.6;;;17.4;;
41229;SDS011;26964;50.428;19.218;2023-07-02T02:22:48;21.5;;;17.1;;
41229;SDS011;26964;50.428;19.218;2023-07-02T02:23:48;22.2;;;17.9;;
41229;SDS011;26964;50.428;19.218;2023-07-02T02:24:48;20.1;;;17.1;;
41229;SDS011;26964;50.428;19.218;2023-07-02T02:25:48;21.8;;;17.1;;
41229;SDS011;26964;50.428;19.218;2023-07-02T02:26:48;21.4;;;17.7;;
41229;SDS011;26964;50.428;19.218;2023-07-02T02:27:48;22.7;;;17.0;;
41229;SDS011;26964;50.428;19.218;2023-07-02T02:28:48;19.4;;;16.5;;
41229;SDS011;26964;50.428;19.218;2023-07-02T02:29:48;22.1;;;17.1;;
41229;SDS011;26964;50.428;19.218;2023-07-02T02:30:48;20.8;;;17.5;;
41229;SDS011;26964;50.428;19.218;2023-07-02T02:31:48;18.4;;;16.1;;
41229;SDS011;26964;50.428;19.218;2023-07-02T02:32:48;21.5;;;16.9;;
41229;SDS011;26964;50.428;19.218;2023-07-02T02:33:48;21.5;;;17.7;;
41229;SDS011;26964;50.428;19.218;2023-07-02T02:34:48;22.8;;;18.0;;
41229;SDS011;26964;50.428;19.218;2023-07-02T02:35:48;20.0;;;17.8;;
41229;SDS011;26964;50.428;19.218;2023-07-02T02:36:48;24.5;;;17.8;;
41229;SDS011;26964;50.428;19.218;2023-07-02T02:37:48;24.0;;;18.3;;
41229;SDS011;26964;50.428;19.218;2023-07-02T02:38:48;21.7;;;17.7;;
41229;SDS011;26964;50.428;19.218;2023-07-02T02:39:48;21.3;;;17.4;;
41229;SDS011;26964;50.428;19.218;2023-07-02T02:40:48;22.2;;;16.8;;
41229;SDS011;26964;50.428;19.218;2023-07-02T02:41:48;20.7;;;16.9;;
41229;SDS011;26964;50.428;19.218;2023-07-02T02:42:48;21.5;;;18.1;;
41229;SDS011;26964;50.428;19.218;2023-07-02T02:43:48;19.8;;;17.3;;
41229;SDS011;26964;50.428;19.218;2023-07-02T02:44:48;23.3;;;18.3;;
41229;SDS011;26964;50.428;19.218;2023-07-02T02:45:48;23.6;;;19.0;;
41229;SDS011;26964;50.428;19.218;2023-07-02T02:46:48;24.2;;;19.3;;
41229;SDS011;26964;50.428;19.218;2023-07-02T02:47:48;22.6;;;18.4;;
41229;SDS011;26964;50.428;19.218;2023-07-02T02:48:48;22.7;;;18.4;;
41229;SDS011;26964;50.428;19.218;2023-07-02T02:49:48;21.9;;;18.8;;
41229;SDS011;26964;50.428;19.218;2023-07-02T02:50:48;24.2;;;18.8;;
41229;SDS011;26964;50.428;19.218;2023-07-02T02:51:48;22.7;;;18.9;;
41229;SDS011;26964;50.428;19.218;2023-07-02T02:52:48;23.1;;;18.4;;
41229;SDS011;26964;50.428;19.218;2023-07-02T02:53:48;21.1;;;18.5;;
41229;SDS011;26964;50.428;19.218;2023-07-02T02:54:49;23.3;;;19.4;;
41229;SDS011;26964;50.428;19.218;2023-07-02T02:55:48;23.4;;;19.2;;
41229;SDS011;26964;50.428;19.218;2023-07-02T02:56:48;23.4;;;19.6;;
41229;SDS011;26964;50.428;19.218;2023-07-02T02:57:48;22.3;;;18.1;;
41229;SDS011;26964;50.428;19.218;2023-07-02T02:58:48;22.8;;;18.3;;
41229;SDS011;26964;50.428;19.218;2023-07-02T02:59:48;23.1;;;19.0;;
41229;SDS011;26964;50.428;19.218;2023-07-02T03:00:48;23.8;;;19.3;;
41229;SDS011;26964;50.428;19.218;2023-07-02T03:01:48;23.7;;;19.6;;
41229;SDS011;26964;50.428;19.218;2023-07-02T03:02:48;25.0;;;19.9;;
41229;SDS011;26964;50.428;19.218;2023-07-02T03:03:48;24.2;;;19.3;;
41229;SDS011;26964;50.428;19.218;2023-07-02T03:04:48;23.8;;;20.4;;
41229;SDS011;26964;50.428;19.218;2023-07-02T03:05:48;24.5;;;20.0;;
41229;SDS011;26964;50.428;19.218;2023-07-02T03:06:48;26.0;;;21.5;;
41229;SDS011;26964;50.428;19.218;2023-07-02T03:07:48;24.8;;;20.4;;
41229;SDS011;26964;50.428;19.218;2023-07-02T03:08:48;22.9;;;19.8;;
41229;SDS011;26964;50.428;19.218;2023-07-02T03:09:48;27.4;;;20.3;;
41229;SDS011;26964;50.428;19.218;2023-07-02T03:10:48;23.7;;;19.3;;
41229;SDS011;26964;50.428;19.218;2023-07-02T03:11:48;28.2;;;20.8;;
41229;SDS011;26964;50.428;19.218;2023-07-02T03:12:48;24.5;;;20.9;;
41229;SDS011;26964;50.428;19.218;2023-07-02T03:13:48;24.5;;;21.0;;
41229;SDS011;26964;50.428;19.218;2023-07-02T03:14:48;29.2;;;21.1;;
41229;SDS011;26964;50.428;19.218;2023-07-02T03:15:48;30.6;;;21.7;;
41229;SDS011;26964;50.428;19.218;2023-07-02T03:16:48;27.4;;;21.9;;
41229;SDS011;26964;50.428;19.218;2023-07-02T03:17:48;25.5;;;20.6;;
41229;SDS011;26964;50.428;19.218;2023-07-02T03:18:48;25.0;;;20.8;;
41229;SDS011;26964;50.428;19.218;2023-07-02T03:19:48;24.7;;;20.8;;
41229;SDS011;26964;50.428;19.218;2023-07-02T03:20:48;23.5;;;21.0;;
41229;SDS011;26964;50.428;19.218;2023-07-02T03:21:48;26.0;;;21.5;;
41229;SDS011;26964;50.428;19.218;2023-07-02T03:22:48;26.9;;;20.7;;
41229;SDS011;26964;50.428;19.218;2023-07-02T03:23:48;26.7;;;21.1;;
41229;SDS011;26964;50.428;19.218;2023-07-02T03:24:48;26.9;;;21.7;;
41229;SDS011;26964;50.428;19.218;2023-07-02T03:25:48;24.1;;;20.1;;
41229;SDS011;26964;50.428;19.218;2023-07-02T03:26:48;24.1;;;20.6;;
41229;SDS011;26964;50.428;19.218;2023-07-02T03:27:48;25.0;;;20.8;;
41229;SDS011;26964;50.428;19.218;2023-07-02T03:28:48;24.3;;;20.4;;
41229;SDS011;26964;50.428;19.218;2023-07-02T03:29:48;24.8;;;21.2;;
41229;SDS011;26964;50.428;19.218;2023-07-02T03:30:48;24.9;;;20.4;;
41229;SDS011;26964;50.428;19.218;2023-07-02T03:31:48;24.5;;;20.7;;
41229;SDS011;26964;50.428;19.218;2023-07-02T03:32:48;26.4;;;21.0;;
41229;SDS011;26964;50.428;19.218;2023-07-02T03:33:48;24.1;;;21.0;;
41229;SDS011;26964;50.428;19.218;2023-07-02T03:34:48;24.3;;;20.2;;
41229;SDS011;26964;50.428;19.218;2023-07-02T03:35:48;23.4;;;20.3;;
41229;SDS011;26964;50.428;19.218;2023-07-02T03:36:48;25.7;;;20.3;;
41229;SDS011;26964;50.428;19.218;2023-07-02T03:37:48;25.1;;;20.6;;
41229;SDS011;26964;50.428;19.218;2023-07-02T03:38:48;23.9;;;19.7;;
41229;SDS011;26964;50.428;19.218;2023-07-02T03:39:48;24.2;;;20.7;;
41229;SDS011;26964;50.428;19.218;2023-07-02T03:40:48;24.0;;;20.5;;
41229;SDS011;26964;50.428;19.218;2023-07-02T03:41:48;25.4;;;20.6;;
41229;SDS011;26964;50.428;19.218;2023-07-02T03:42:48;24.1;;;19.5;;
41229;SDS011;26964;50.428;19.218;2023-07-02T03:43:48;22.5;;;19.5;;
41229;SDS011;26964;50.428;19.218;2023-07-02T03:44:48;25.9;;;20.2;;
41229;SDS011;26964;50.428;19.218;2023-07-02T03:45:48;22.1;;;19.7;;
41229;SDS011;26964;50.428;19.218;2023-07-02T03:46:48;23.5;;;20.1;;
41229;SDS011;26964;50.428;19.218;2023-07-02T03:47:48;26.2;;;19.4;;
41229;SDS011;26964;50.428;19.218;2023-07-02T03:48:48;25.2;;;20.2;;
41229;SDS011;26964;50.428;19.218;2023-07-02T03:49:48;23.9;;;19.0;;
41229;SDS011;26964;50.428;19.218;2023-07-02T03:50:48;22.5;;;19.5;;
41229;SDS011;26964;50.428;19.218;2023-07-02T03:51:48;24.2;;;19.6;;
41229;SDS011;26964;50.428;19.218;2023-07-02T03:52:48;23.2;;;19.6;;
41229;SDS011;26964;50.428;19.218;2023-07-02T03:53:48;24.3;;;19.5;;
41229;SDS011;26964;50.428;19.218;2023-07-02T03:54:48;24.9;;;19.7;;
41229;SDS011;26964;50.428;19.218;2023-07-02T03:55:48;22.3;;;19.4;;
41229;SDS011;26964;50.428;19.218;2023-07-02T03:56:48;22.7;;;19.0;;
41229;SDS011;26964;50.428;19.218;2023-07-02T03:57:48;24.5;;;19.7;;
41229;SDS011;26964;50.428;19.218;2023-07-02T03:58:48;22.6;;;19.2;;
41229;SDS011;26964;50.428;19.218;2023-07-02T03:59:48;21.8;;;18.7;;
41229;SDS011;26964;50.428;19.218;2023-07-02T04:00:48;24.2;;;19.8;;
41229;SDS011;26964;50.428;19.218;2023-07-02T04:01:48;21.4;;;18.5;;
41229;SDS011;26964;50.428;19.218;2023-07-02T04:02:48;21.1;;;17.7;;
41229;SDS011;26964;50.428;19.218;2023-07-02T04:03:48;23.8;;;19.4;;
41229;SDS011;26964;50.428;19.218;2023-07-02T04:04:48;21.4;;;17.4;;
41229;SDS011;26964;50.428;19.218;2023-07-02T04:05:48;21.8;;;18.0;;
41229;SDS011;26964;50.428;19.218;2023-07-02T04:06:48;23.0;;;17.7;;
41229;SDS011;26964;50.428;19.218;2023-07-02T04:07:48;20.5;;;17.9;;
41229;SDS011;26964;50.428;19.218;2023-07-02T04:08:48;23.8;;;18.1;;
41229;SDS011;26964;50.428;19.218;2023-07-02T04:09:48;22.4;;;17.3;;
41229;SDS011;26964;50.428;19.218;2023-07-02T04:10:48;20.8;;;17.5;;
41229;SDS011;26964;50.428;19.218;2023-07-02T04:11:48;20.6;;;17.9;;
41229;SDS011;26964;50.428;19.218;2023-07-02T04:12:48;19.7;;;16.0;;
41229;SDS011;26964;50.428;19.218;2023-07-02T04:13:48;23.8;;;17.2;;
41229;SDS011;26964;50.428;19.218;2023-07-02T04:14:48;20.4;;;16.6;;
41229;SDS011;26964;50.428;19.218;2023-07-02T04:15:48;23.1;;;17.7;;
41229;SDS011;26964;50.428;19.218;2023-07-02T04:16:48;20.2;;;15.8;;
41229;SDS011;26964;50.428;19.218;2023-07-02T04:17:48;19.6;;;16.7;;
41229;SDS011;26964;50.428;19.218;2023-07-02T04:18:48;20.4;;;16.4;;
41229;SDS011;26964;50.428;19.218;2023-07-02T04:19:48;18.8;;;16.6;;
41229;SDS011;26964;50.428;19.218;2023-07-02T04:20:48;21.1;;;15.8;;
41229;SDS011;26964;50.428;19.218;2023-07-02T04:21:48;20.7;;;16.3;;
41229;SDS011;26964;50.428;19.218;2023-07-02T04:22:48;23.5;;;16.4;;
41229;SDS011;26964;50.428;19.218;2023-07-02T04:23:48;21.4;;;17.4;;
41229;SDS011;26964;50.428;19.218;2023-07-02T04:24:48;19.7;;;16.7;;
41229;SDS011;26964;50.428;19.218;2023-07-02T04:25:48;21.3;;;16.6;;
41229;SDS011;26964;50.428;19.218;2023-07-02T04:26:48;20.9;;;16.5;;
41229;SDS011;26964;50.428;19.218;2023-07-02T04:27:48;21.5;;;16.0;;
41229;SDS011;26964;50.428;19.218;2023-07-02T04:28:48;21.9;;;16.8;;
41229;SDS011;26964;50.428;19.218;2023-07-02T04:29:48;22.3;;;15.6;;
41229;SDS011;26964;50.428;19.218;2023-07-02T04:30:48;20.8;;;14.8;;
41229;SDS011;26964;50.428;19.218;2023-07-02T04:31:48;20.0;;;14.6;;
41229;SDS011;26964;50.428;19.218;2023-07-02T04:32:48;19.6;;;14.2;;
41229;SDS011;26964;50.428;19.218;2023-07-02T04:33:48;21.7;;;14.3;;
41229;SDS011;26964;50.428;19.218;2023-07-02T04:34:48;18.9;;;14.6;;
41229;SDS011;26964;50.428;19.218;2023-07-02T04:35:48;20.0;;;14.6;;
41229;SDS011;26964;50.428;19.218;2023-07-02T04:36:48;14.9;;;12.8;;
41229;SDS011;26964;50.428;19.218;2023-07-02T04:37:48;19.7;;;13.5;;
41229;SDS011;26964;50.428;19.218;2023-07-02T04:38:48;17.9;;;12.8;;
41229;SDS011;26964;50.428;19.218;2023-07-02T04:39:48;17.1;;;13.5;;
41229;SDS011;26964;50.428;19.218;2023-07-02T04:40:48;16.0;;;13.1;;
41229;SDS011;26964;50.428;19.218;2023-07-02T04:41:48;18.2;;;12.7;;
41229;SDS011;26964;50.428;19.218;2023-07-02T04:42:48;17.6;;;12.6;;
41229;SDS011;26964;50.428;19.218;2023-07-02T04:43:48;15.8;;;12.2;;
41229;SDS011;26964;50.428;19.218;2023-07-02T04:44:48;17.4;;;11.9;;
41229;SDS011;26964;50.428;19.218;2023-07-02T04:45:48;16.9;;;12.7;;
41229;SDS011;26964;50.428;19.218;2023-07-02T04:46:48;15.5;;;12.4;;
41229;SDS011;26964;50.428;19.218;2023-07-02T04:47:48;17.4;;;12.4;;
41229;SDS011;26964;50.428;19.218;2023-07-02T04:48:48;16.5;;;12.0;;
41229;SDS011;26964;50.428;19.218;2023-07-02T04:49:48;14.2;;;11.0;;
41229;SDS011;26964;50.428;19.218;2023-07-02T04:50:48;16.3;;;11.9;;
41229;SDS011;26964;50.428;19.218;2023-07-02T04:51:48;16.5;;;11.7;;
41229;SDS011;26964;50.428;19.218;2023-07-02T04:52:48;14.8;;;10.4;;
41229;SDS011;26964;50.428;19.218;2023-07-02T04:53:48;11.8;;;9.3;;
41229;SDS011;26964;50.428;19.218;2023-07-02T04:54:48;12.5;;;8.9;;
41229;SDS011;26964;50.428;19.218;2023-07-02T04:55:48;14.6;;;9.5;;
41229;SDS011;26964;50.428;19.218;2023-07-02T04:56:48;12.6;;;9.6;;
41229;SDS011;26964;50.428;19.218;2023-07-02T04:57:48;16.4;;;8.9;;
41229;SDS011;26964;50.428;19.218;2023-07-02T04:58:48;14.6;;;9.5;;
41229;SDS011;26964;50.428;19.218;2023-07-02T04:59:48;11.1;;;8.6;;
41229;SDS011;26964;50.428;19.218;2023-07-02T05:00:48;12.7;;;8.4;;
41229;SDS011;26964;50.428;19.218;2023-07-02T05:01:48;12.3;;;8.7;;
41229;SDS011;26964;50.428;19.218;2023-07-02T05:02:48;13.3;;;8.1;;
41229;SDS011;26964;50.428;19.218;2023-07-02T05:03:48;12.8;;;8.5;;
41229;SDS011;26964;50.428;19.218;2023-07-02T05:04:48;13.2;;;9.2;;
41229;SDS011;26964;50.428;19.218;2023-07-02T05:05:49;11.9;;;8.0;;
41229;SDS011;26964;50.428;19.218;2023-07-02T05:06:48;14.1;;;8.1;;
41229;SDS011;26964;50.428;19.218;2023-07-02T05:07:48;12.1;;;7.8;;
41229;SDS011;26964;50.428;19.218;2023-07-02T05:08:48;12.7;;;7.8;;
41229;SDS011;26964;50.428;19.218;2023-07-02T05:09:48;13.0;;;8.6;;
41229;SDS011;26964;50.428;19.218;2023-07-02T05:10:48;14.6;;;8.2;;
41229;SDS011;26964;50.428;19.218;2023-07-02T05:11:48;11.9;;;8.1;;
41229;SDS011;26964;50.428;19.218;2023-07-02T05:12:48;10.5;;;7.2;;
41229;SDS011;26964;50.428;19.218;2023-07-02T05:13:48;13.1;;;8.3;;
41229;SDS011;26964;50.428;19.218;2023-07-02T05:14:48;11.5;;;7.6;;
41229;SDS011;26964;50.428;19.218;2023-07-02T05:15:48;11.1;;;7.3;;
41229;SDS011;26964;50.428;19.218;2023-07-02T05:16:48;10.5;;;6.6;;
41229;SDS011;26964;50.428;19.218;2023-07-02T05:17:48;11.3;;;7.0;;
41229;SDS011;26964;50.428;19.218;2023-07-02T05:18:48;9.3;;;6.3;;
41229;SDS011;26964;50.428;19.218;2023-07-02T05:19:48;9.1;;;5.9;;
41229;SDS011;26964;50.428;19.218;2023-07-02T05:20:48;9.4;;;6.1;;
41229;SDS011;26964;50.428;19.218;2023-07-02T05:21:48;7.4;;;5.5;;
41229;SDS011;26964;50.428;19.218;2023-07-02T05:22:48;8.3;;;5.7;;
41229;SDS011;26964;50.428;19.218;2023-07-02T05:23:48;11.3;;;6.3;;
41229;SDS011;26964;50.428;19.218;2023-07-02T05:24:48;8.2;;;5.4;;
41229;SDS011;26964;50.428;19.218;2023-07-02T05:25:48;9.5;;;4.9;;
41229;SDS011;26964;50.428;19.218;2023-07-02T05:26:48;6.6;;;4.2;;
41229;SDS011;26964;50.428;19.218;2023-07-02T05:27:48;8.1;;;4.7;;
41229;SDS011;26964;50.428;19.218;2023-07-02T05:28:48;7.3;;;5.1;;
41229;SDS011;26964;50.428;19.218;2023-07-02T05:29:48;10.0;;;4.9;;
41229;SDS011;26964;50.428;19.218;2023-07-02T05:30:48;8.4;;;4.6;;
41229;SDS011;26964;50.428;19.218;2023-07-02T05:31:48;9.9;;;4.7;;
41229;SDS011;26964;50.428;19.218;2023-07-02T05:32:48;9.4;;;4.7;;
41229;SDS011;26964;50.428;19.218;2023-07-02T05:33:48;9.3;;;4.3;;
41229;SDS011;26964;50.428;19.218;2023-07-02T05:34:48;7.4;;;4.0;;
41229;SDS011;26964;50.428;19.218;2023-07-02T05:35:48;6.8;;;4.4;;
41229;SDS011;26964;50.428;19.218;2023-07-02T05:36:48;7.1;;;4.1;;
41229;SDS011;26964;50.428;19.218;2023-07-02T05:37:48;7.7;;;4.0;;
41229;SDS011;26964;50.428;19.218;2023-07-02T05:38:48;6.6;;;3.9;;
41229;SDS011;26964;50.428;19.218;2023-07-02T05:39:48;7.4;;;3.8;;
41229;SDS011;26964;50.428;19.218;2023-07-02T05:40:48;6.0;;;3.7;;
41229;SDS011;26964;50.428;19.218;2023-07-02T05:41:48;6.0;;;3.5;;
41229;SDS011;26964;50.428;19.218;2023-07-02T05:42:48;6.9;;;3.6;;
41229;SDS011;26964;50.428;19.218;2023-07-02T05:43:48;6.8;;;3.5;;
41229;SDS011;26964;50.428;19.218;2023-07-02T05:44:48;6.7;;;3.3;;
41229;SDS011;26964;50.428;19.218;2023-07-02T05:45:49;7.9;;;3.8;;
41229;SDS011;26964;50.428;19.218;2023-07-02T05:46:48;6.3;;;3.4;;
41229;SDS011;26964;50.428;19.218;2023-07-02T05:47:48;6.7;;;3.6;;
41229;SDS011;26964;50.428;19.218;2023-07-02T05:48:48;6.7;;;3.3;;
41229;SDS011;26964;50.428;19.218;2023-07-02T05:49:48;6.9;;;3.3;;
41229;SDS011;26964;50.428;19.218;2023-07-02T05:50:48;8.3;;;3.8;;
41229;SDS011;26964;50.428;19.218;2023-07-02T05:51:48;7.1;;;3.2;;
41229;SDS011;26964;50.428;19.218;2023-07-02T05:52:48;7.7;;;3.4;;
41229;SDS011;26964;50.428;19.218;2023-07-02T05:53:48;7.3;;;3.5;;
41229;SDS011;26964;50.428;19.218;2023-07-02T05:54:48;9.0;;;3.9;;
41229;SDS011;26964;50.428;19.218;2023-07-02T05:55:48;5.8;;;3.0;;
41229;SDS011;26964;50.428;19.218;2023-07-02T05:56:48;5.1;;;3.1;;
41229;SDS011;26964;50.428;19.218;2023-07-02T05:57:48;6.3;;;3.0;;
41229;SDS011;26964;50.428;19.218;2023-07-02T05:58:48;6.0;;;3.1;;
41229;SDS011;26964;50.428;19.218;2023-07-02T05:59:48;8.0;;;3.5;;